sensor_id;sensor_type;location;lat;lon;timestamp;temperature;humidity
31769;DHT22;18342;52.132;21.048;2022-09-09T00:02:00;14.50;99.90
31769;DHT22;18342;52.132;21.048;2022-09-09T00:04:29;14.30;99.90
31769;DHT22;18342;52.132;21.048;2022-09-09T00:13:11;14.10;99.90
31769;DHT22;18342;52.132;21.048;2022-09-09T00:21:11;13.80;99.90
31769;DHT22;18342;52.132;21.048;2022-09-09T00:23:54;13.90;99.90
31769;DHT22;18342;52.132;21.048;2022-09-09T00:26:43;13.90;99.90
31769;DHT22;18342;52.132;21.048;2022-09-09T00:29:33;13.90;99.90
31769;DHT22;18342;52.132;21.048;2022-09-09T00:32:16;13.90;99.90
31769;DHT22;18342;52.132;21.048;2022-09-09T00:35:30;13.90;99.90
31769;DHT22;18342;52.132;21.048;2022-09-09T00:37:36;14.00;99.90
31769;DHT22;18342;52.132;21.048;2022-09-09T00:40:19;14.00;99.90
31769;DHT22;18342;52.132;21.048;2022-09-09T00:46:05;13.90;99.90
31769;DHT22;18342;52.132;21.048;2022-09-09T00:59:52;13.60;99.90
31769;DHT22;18342;52.132;21.048;2022-09-09T01:02:27;13.70;99.90
31769;DHT22;18342;52.132;21.048;2022-09-09T01:04:55;13.80;99.90
31769;DHT22;18342;52.132;21.048;2022-09-09T01:07:23;13.50;99.90
31769;DHT22;18342;52.132;21.048;2022-09-09T01:10:35;13.50;99.90
31769;DHT22;18342;52.132;21.048;2022-09-09T01:13:01;13.50;99.90
31769;DHT22;18342;52.132;21.048;2022-09-09T01:15:32;13.40;99.90
31769;DHT22;18342;52.132;21.048;2022-09-09T01:18:06;13.40;99.90
31769;DHT22;18342;52.132;21.048;2022-09-09T01:20:56;13.50;99.90
31769;DHT22;18342;52.132;21.048;2022-09-09T01:26:28;13.60;99.90
31769;DHT22;18342;52.132;21.048;2022-09-09T01:28:57;13.60;99.90
31769;DHT22;18342;52.132;21.048;2022-09-09T01:31:30;13.60;99.90
31769;DHT22;18342;52.132;21.048;2022-09-09T01:34:15;13.60;99.90
31769;DHT22;18342;52.132;21.048;2022-09-09T01:36:53;13.60;99.90
31769;DHT22;18342;52.132;21.048;2022-09-09T01:39:22;13.70;99.90
31769;DHT22;18342;52.132;21.048;2022-09-09T01:41:48;13.80;99.90
31769;DHT22;18342;52.132;21.048;2022-09-09T01:44:14;13.80;99.90
31769;DHT22;18342;52.132;21.048;2022-09-09T01:46:40;13.80;99.90
31769;DHT22;18342;52.132;21.048;2022-09-09T01:49:07;13.90;99.90
31769;DHT22;18342;52.132;21.048;2022-09-09T01:51:34;13.90;99.90
31769;DHT22;18342;52.132;21.048;2022-09-09T01:54:01;13.70;99.90
31769;DHT22;18342;52.132;21.048;2022-09-09T01:56:43;13.80;99.90
31769;DHT22;18342;52.132;21.048;2022-09-09T02:06:14;13.80;99.90
31769;DHT22;18342;52.132;21.048;2022-09-09T02:08:49;13.80;99.90
31769;DHT22;18342;52.132;21.048;2022-09-09T02:11:17;13.70;99.90
31769;DHT22;18342;52.132;21.048;2022-09-09T02:13:45;13.80;99.90
31769;DHT22;18342;52.132;21.048;2022-09-09T02:16:23;13.80;99.90
31769;DHT22;18342;52.132;21.048;2022-09-09T02:18:55;13.90;99.90
31769;DHT22;18342;52.132;21.048;2022-09-09T02:21:46;13.90;99.90
31769;DHT22;18342;52.132;21.048;2022-09-09T02:24:18;13.90;99.90
31769;DHT22;18342;52.132;21.048;2022-09-09T02:26:52;14.00;99.90
31769;DHT22;18342;52.132;21.048;2022-09-09T02:29:28;14.00;99.90
31769;DHT22;18342;52.132;21.048;2022-09-09T02:31:59;14.00;99.90
31769;DHT22;18342;52.132;21.048;2022-09-09T02:34:29;13.90;99.90
31769;DHT22;18342;52.132;21.048;2022-09-09T02:37:03;13.70;99.90
31769;DHT22;18342;52.132;21.048;2022-09-09T02:39:32;13.80;99.90
31769;DHT22;18342;52.132;21.048;2022-09-09T02:42:00;13.80;99.90
31769;DHT22;18342;52.132;21.048;2022-09-09T02:44:26;13.80;99.90
31769;DHT22;18342;52.132;21.048;2022-09-09T02:50:11;13.70;99.90
31769;DHT22;18342;52.132;21.048;2022-09-09T02:55:38;13.80;99.90
31769;DHT22;18342;52.132;21.048;2022-09-09T02:58:08;13.80;99.90
31769;DHT22;18342;52.132;21.048;2022-09-09T03:00:37;13.90;99.90
31769;DHT22;18342;52.132;21.048;2022-09-09T03:03:07;13.90;99.90
31769;DHT22;18342;52.132;21.048;2022-09-09T03:05:36;13.80;99.90
31769;DHT22;18342;52.132;21.048;2022-09-09T03:08:06;13.90;99.90
31769;DHT22;18342;52.132;21.048;2022-09-09T03:10:45;13.90;99.90
31769;DHT22;18342;52.132;21.048;2022-09-09T03:13:13;13.90;99.90
31769;DHT22;18342;52.132;21.048;2022-09-09T03:15:41;13.90;99.90
31769;DHT22;18342;52.132;21.048;2022-09-09T03:18:07;13.80;99.90
31769;DHT22;18342;52.132;21.048;2022-09-09T03:20:33;13.80;99.90
31769;DHT22;18342;52.132;21.048;2022-09-09T03:23:00;13.80;99.90
31769;DHT22;18342;52.132;21.048;2022-09-09T03:25:34;13.90;99.90
31769;DHT22;18342;52.132;21.048;2022-09-09T03:28:01;13.90;99.90
31769;DHT22;18342;52.132;21.048;2022-09-09T03:30:28;13.90;99.90
31769;DHT22;18342;52.132;21.048;2022-09-09T03:32:54;13.90;99.90
31769;DHT22;18342;52.132;21.048;2022-09-09T03:35:23;13.90;99.90
31769;DHT22;18342;52.132;21.048;2022-09-09T03:37:49;13.80;99.90
31769;DHT22;18342;52.132;21.048;2022-09-09T03:40:15;13.80;99.90
31769;DHT22;18342;52.132;21.048;2022-09-09T03:42:41;13.70;99.90
31769;DHT22;18342;52.132;21.048;2022-09-09T03:45:12;13.70;99.90
31769;DHT22;18342;52.132;21.048;2022-09-09T03:47:38;13.80;99.90
31769;DHT22;18342;52.132;21.048;2022-09-09T03:50:05;13.80;99.90
31769;DHT22;18342;52.132;21.048;2022-09-09T03:52:38;13.80;99.90
31769;DHT22;18342;52.132;21.048;2022-09-09T03:55:05;13.90;99.90
31769;DHT22;18342;52.132;21.048;2022-09-09T03:57:32;13.90;99.90
31769;DHT22;18342;52.132;21.048;2022-09-09T04:00:04;13.90;99.90
31769;DHT22;18342;52.132;21.048;2022-09-09T04:02:31;14.00;99.90
31769;DHT22;18342;52.132;21.048;2022-09-09T04:04:57;13.90;99.90
31769;DHT22;18342;52.132;21.048;2022-09-09T04:07:28;13.90;99.90
31769;DHT22;18342;52.132;21.048;2022-09-09T04:09:55;13.90;99.90
31769;DHT22;18342;52.132;21.048;2022-09-09T04:12:21;13.80;99.90
31769;DHT22;18342;52.132;21.048;2022-09-09T04:14:50;13.90;99.90
31769;DHT22;18342;52.132;21.048;2022-09-09T04:17:19;13.90;99.90
31769;DHT22;18342;52.132;21.048;2022-09-09T04:19:48;13.90;99.90
31769;DHT22;18342;52.132;21.048;2022-09-09T04:22:13;13.90;99.90
31769;DHT22;18342;52.132;21.048;2022-09-09T04:24:42;14.00;99.90
31769;DHT22;18342;52.132;21.048;2022-09-09T04:27:08;13.90;99.90
31769;DHT22;18342;52.132;21.048;2022-09-09T04:29:33;13.90;99.90
31769;DHT22;18342;52.132;21.048;2022-09-09T04:32:00;13.90;99.90
31769;DHT22;18342;52.132;21.048;2022-09-09T04:34:26;13.90;99.90
31769;DHT22;18342;52.132;21.048;2022-09-09T04:36:52;13.90;99.90
31769;DHT22;18342;52.132;21.048;2022-09-09T04:39:18;13.80;99.90
31769;DHT22;18342;52.132;21.048;2022-09-09T04:41:45;13.80;99.90
31769;DHT22;18342;52.132;21.048;2022-09-09T04:44:11;13.80;99.90
31769;DHT22;18342;52.132;21.048;2022-09-09T04:46:37;13.80;99.90
31769;DHT22;18342;52.132;21.048;2022-09-09T04:49:03;13.80;99.90
31769;DHT22;18342;52.132;21.048;2022-09-09T04:51:29;13.80;99.90
31769;DHT22;18342;52.132;21.048;2022-09-09T04:53:58;13.80;99.90
31769;DHT22;18342;52.132;21.048;2022-09-09T04:56:24;13.80;99.90
31769;DHT22;18342;52.132;21.048;2022-09-09T04:58:52;13.90;99.90
31769;DHT22;18342;52.132;21.048;2022-09-09T05:01:20;13.90;99.90
31769;DHT22;18342;52.132;21.048;2022-09-09T05:03:47;13.90;99.90
31769;DHT22;18342;52.132;21.048;2022-09-09T05:06:19;14.00;99.90
31769;DHT22;18342;52.132;21.048;2022-09-09T05:08:45;14.00;99.90
31769;DHT22;18342;52.132;21.048;2022-09-09T05:11:18;14.00;99.90
31769;DHT22;18342;52.132;21.048;2022-09-09T05:13:45;14.00;99.90
31769;DHT22;18342;52.132;21.048;2022-09-09T05:16:12;14.10;99.90
31769;DHT22;18342;52.132;21.048;2022-09-09T05:18:41;14.10;99.90
31769;DHT22;18342;52.132;21.048;2022-09-09T05:21:12;14.10;99.90
31769;DHT22;18342;52.132;21.048;2022-09-09T05:23:39;14.00;99.90
31769;DHT22;18342;52.132;21.048;2022-09-09T05:26:08;14.10;99.90
31769;DHT22;18342;52.132;21.048;2022-09-09T05:28:35;14.10;99.90
31769;DHT22;18342;52.132;21.048;2022-09-09T05:31:03;14.00;99.90
31769;DHT22;18342;52.132;21.048;2022-09-09T05:33:31;13.90;99.90
31769;DHT22;18342;52.132;21.048;2022-09-09T05:36:00;13.80;99.90
31769;DHT22;18342;52.132;21.048;2022-09-09T05:38:30;13.80;99.90
31769;DHT22;18342;52.132;21.048;2022-09-09T05:40:57;13.80;99.90
31769;DHT22;18342;52.132;21.048;2022-09-09T05:43:23;13.90;99.90
31769;DHT22;18342;52.132;21.048;2022-09-09T05:46:03;14.00;99.90
31769;DHT22;18342;52.132;21.048;2022-09-09T05:48:36;14.00;99.90
31769;DHT22;18342;52.132;21.048;2022-09-09T05:51:03;14.00;99.90
31769;DHT22;18342;52.132;21.048;2022-09-09T05:53:30;14.00;99.90
31769;DHT22;18342;52.132;21.048;2022-09-09T05:56:33;14.10;99.90
31769;DHT22;18342;52.132;21.048;2022-09-09T05:58:55;14.10;99.90
31769;DHT22;18342;52.132;21.048;2022-09-09T06:01:30;14.10;99.90
31769;DHT22;18342;52.132;21.048;2022-09-09T06:03:57;14.10;99.90
31769;DHT22;18342;52.132;21.048;2022-09-09T06:06:25;14.10;99.90
31769;DHT22;18342;52.132;21.048;2022-09-09T06:08:56;14.10;99.90
31769;DHT22;18342;52.132;21.048;2022-09-09T06:11:27;14.10;99.90
31769;DHT22;18342;52.132;21.048;2022-09-09T06:13:56;14.00;99.90
31769;DHT22;18342;52.132;21.048;2022-09-09T06:16:24;14.10;99.90
31769;DHT22;18342;52.132;21.048;2022-09-09T06:18:55;14.10;99.90
31769;DHT22;18342;52.132;21.048;2022-09-09T06:21:25;14.00;99.90
31769;DHT22;18342;52.132;21.048;2022-09-09T06:23:51;14.00;99.90
31769;DHT22;18342;52.132;21.048;2022-09-09T06:28:53;13.90;99.90
31769;DHT22;18342;52.132;21.048;2022-09-09T06:31:25;13.90;99.90
31769;DHT22;18342;52.132;21.048;2022-09-09T06:33:53;13.90;99.90
31769;DHT22;18342;52.132;21.048;2022-09-09T06:36:28;13.90;99.90
31769;DHT22;18342;52.132;21.048;2022-09-09T06:38:54;13.80;99.90
31769;DHT22;18342;52.132;21.048;2022-09-09T06:41:22;13.80;99.90
31769;DHT22;18342;52.132;21.048;2022-09-09T06:43:48;13.80;99.90
31769;DHT22;18342;52.132;21.048;2022-09-09T06:46:16;13.90;99.90
31769;DHT22;18342;52.132;21.048;2022-09-09T06:48:42;13.90;99.90
31769;DHT22;18342;52.132;21.048;2022-09-09T06:51:18;13.90;99.90
31769;DHT22;18342;52.132;21.048;2022-09-09T06:53:46;13.90;99.90
31769;DHT22;18342;52.132;21.048;2022-09-09T06:56:19;13.90;99.90
31769;DHT22;18342;52.132;21.048;2022-09-09T06:58:47;14.00;99.90
31769;DHT22;18342;52.132;21.048;2022-09-09T07:01:19;14.00;99.90
31769;DHT22;18342;52.132;21.048;2022-09-09T07:03:47;13.90;99.90
31769;DHT22;18342;52.132;21.048;2022-09-09T07:06:16;13.90;99.90
31769;DHT22;18342;52.132;21.048;2022-09-09T07:08:49;13.80;99.90
31769;DHT22;18342;52.132;21.048;2022-09-09T07:11:16;13.80;99.90
31769;DHT22;18342;52.132;21.048;2022-09-09T07:13:42;13.70;99.90
31769;DHT22;18342;52.132;21.048;2022-09-09T07:16:10;13.80;99.90
31769;DHT22;18342;52.132;21.048;2022-09-09T07:18:37;13.80;99.90
31769;DHT22;18342;52.132;21.048;2022-09-09T07:21:06;13.80;99.90
31769;DHT22;18342;52.132;21.048;2022-09-09T07:23:34;13.80;99.90
31769;DHT22;18342;52.132;21.048;2022-09-09T07:26:17;13.80;99.90
31769;DHT22;18342;52.132;21.048;2022-09-09T07:28:52;13.90;99.90
31769;DHT22;18342;52.132;21.048;2022-09-09T07:31:24;13.90;99.90
31769;DHT22;18342;52.132;21.048;2022-09-09T07:33:52;13.90;99.90
31769;DHT22;18342;52.132;21.048;2022-09-09T07:36:23;13.90;99.90
31769;DHT22;18342;52.132;21.048;2022-09-09T07:38:51;13.90;99.90
31769;DHT22;18342;52.132;21.048;2022-09-09T07:41:21;13.90;99.90
31769;DHT22;18342;52.132;21.048;2022-09-09T07:43:48;13.90;99.90
31769;DHT22;18342;52.132;21.048;2022-09-09T07:46:16;13.90;99.90
31769;DHT22;18342;52.132;21.048;2022-09-09T07:48:50;13.90;99.90
31769;DHT22;18342;52.132;21.048;2022-09-09T07:51:23;14.00;99.90
31769;DHT22;18342;52.132;21.048;2022-09-09T07:53:54;14.00;99.90
31769;DHT22;18342;52.132;21.048;2022-09-09T07:56:21;14.00;99.90
31769;DHT22;18342;52.132;21.048;2022-09-09T07:58:51;14.00;99.90
31769;DHT22;18342;52.132;21.048;2022-09-09T08:01:20;14.00;99.90
31769;DHT22;18342;52.132;21.048;2022-09-09T08:03:52;14.00;99.90
31769;DHT22;18342;52.132;21.048;2022-09-09T08:06:18;13.90;99.90
31769;DHT22;18342;52.132;21.048;2022-09-09T08:08:53;13.90;99.90
31769;DHT22;18342;52.132;21.048;2022-09-09T08:11:22;13.90;99.90
31769;DHT22;18342;52.132;21.048;2022-09-09T08:13:49;13.80;99.90
31769;DHT22;18342;52.132;21.048;2022-09-09T08:16:19;13.90;99.90
31769;DHT22;18342;52.132;21.048;2022-09-09T08:18:47;13.90;99.90
31769;DHT22;18342;52.132;21.048;2022-09-09T08:21:19;13.90;99.90
31769;DHT22;18342;52.132;21.048;2022-09-09T08:23:51;13.90;99.90
31769;DHT22;18342;52.132;21.048;2022-09-09T08:26:28;13.90;99.90
31769;DHT22;18342;52.132;21.048;2022-09-09T08:28:56;13.90;99.90
31769;DHT22;18342;52.132;21.048;2022-09-09T08:31:29;14.00;99.90
31769;DHT22;18342;52.132;21.048;2022-09-09T08:33:57;14.00;99.90
31769;DHT22;18342;52.132;21.048;2022-09-09T08:36:27;14.00;99.90
31769;DHT22;18342;52.132;21.048;2022-09-09T08:38:55;14.00;99.90
31769;DHT22;18342;52.132;21.048;2022-09-09T08:50:22;14.10;99.90
31769;DHT22;18342;52.132;21.048;2022-09-09T08:53:14;14.20;99.90
31769;DHT22;18342;52.132;21.048;2022-09-09T08:55:52;14.20;99.90
31769;DHT22;18342;52.132;21.048;2022-09-09T08:58:27;14.20;99.90
31769;DHT22;18342;52.132;21.048;2022-09-09T09:03:51;14.30;99.90
31769;DHT22;18342;52.132;21.048;2022-09-09T09:09:57;14.30;99.90
31769;DHT22;18342;52.132;21.048;2022-09-09T09:12:29;14.30;99.90
31769;DHT22;18342;52.132;21.048;2022-09-09T09:14:59;14.30;99.90
31769;DHT22;18342;52.132;21.048;2022-09-09T09:17:28;14.30;99.90
31769;DHT22;18342;52.132;21.048;2022-09-09T09:19:57;14.30;99.90
31769;DHT22;18342;52.132;21.048;2022-09-09T09:22:51;14.20;99.90
31769;DHT22;18342;52.132;21.048;2022-09-09T09:25:23;14.20;99.90
31769;DHT22;18342;52.132;21.048;2022-09-09T09:28:16;14.20;99.90
31769;DHT22;18342;52.132;21.048;2022-09-09T09:30:58;14.20;99.90
31769;DHT22;18342;52.132;21.048;2022-09-09T09:33:38;14.20;99.90
31769;DHT22;18342;52.132;21.048;2022-09-09T09:36:08;14.30;99.90
31769;DHT22;18342;52.132;21.048;2022-09-09T09:38:35;14.20;99.90
31769;DHT22;18342;52.132;21.048;2022-09-09T09:41:01;14.20;99.90
31769;DHT22;18342;52.132;21.048;2022-09-09T09:43:35;14.30;99.90
31769;DHT22;18342;52.132;21.048;2022-09-09T09:46:05;14.30;99.90
31769;DHT22;18342;52.132;21.048;2022-09-09T09:48:31;14.30;99.90
31769;DHT22;18342;52.132;21.048;2022-09-09T09:51:06;14.40;99.90
31769;DHT22;18342;52.132;21.048;2022-09-09T09:53:35;14.40;99.90
31769;DHT22;18342;52.132;21.048;2022-09-09T09:56:12;14.40;99.90
31769;DHT22;18342;52.132;21.048;2022-09-09T10:01:24;14.40;99.90
31769;DHT22;18342;52.132;21.048;2022-09-09T10:03:53;14.50;99.90
31769;DHT22;18342;52.132;21.048;2022-09-09T10:06:37;14.50;99.90
31769;DHT22;18342;52.132;21.048;2022-09-09T10:09:29;14.60;99.90
31769;DHT22;18342;52.132;21.048;2022-09-09T10:26:21;14.50;99.90
31769;DHT22;18342;52.132;21.048;2022-09-09T10:31:38;14.50;99.90
31769;DHT22;18342;52.132;21.048;2022-09-09T10:36:58;14.50;99.90
31769;DHT22;18342;52.132;21.048;2022-09-09T10:39:45;14.50;99.90
31769;DHT22;18342;52.132;21.048;2022-09-09T10:42:14;14.50;99.90
31769;DHT22;18342;52.132;21.048;2022-09-09T10:45:13;14.50;99.90
31769;DHT22;18342;52.132;21.048;2022-09-09T10:56:00;14.70;99.90
31769;DHT22;18342;52.132;21.048;2022-09-09T10:58:47;14.60;99.90
31769;DHT22;18342;52.132;21.048;2022-09-09T11:01:19;14.60;99.90
31769;DHT22;18342;52.132;21.048;2022-09-09T11:03:53;14.60;99.90
31769;DHT22;18342;52.132;21.048;2022-09-09T11:06:24;14.50;99.90
31769;DHT22;18342;52.132;21.048;2022-09-09T11:08:52;14.50;99.90
31769;DHT22;18342;52.132;21.048;2022-09-09T11:11:34;14.50;99.90
31769;DHT22;18342;52.132;21.048;2022-09-09T11:16:50;14.60;99.90
31769;DHT22;18342;52.132;21.048;2022-09-09T11:19:33;14.60;99.90
31769;DHT22;18342;52.132;21.048;2022-09-09T11:22:04;14.60;99.90
31769;DHT22;18342;52.132;21.048;2022-09-09T11:24:40;14.60;99.90
31769;DHT22;18342;52.132;21.048;2022-09-09T11:27:21;14.60;99.90
31769;DHT22;18342;52.132;21.048;2022-09-09T11:30:04;14.60;99.90
31769;DHT22;18342;52.132;21.048;2022-09-09T11:35:46;14.70;99.90
31769;DHT22;18342;52.132;21.048;2022-09-09T11:37:59;14.70;99.90
31769;DHT22;18342;52.132;21.048;2022-09-09T11:40:28;14.70;99.90
31769;DHT22;18342;52.132;21.048;2022-09-09T11:45:31;14.80;99.90
31769;DHT22;18342;52.132;21.048;2022-09-09T11:48:00;14.70;99.90
31769;DHT22;18342;52.132;21.048;2022-09-09T11:50:27;14.80;99.90
31769;DHT22;18342;52.132;21.048;2022-09-09T11:55:39;14.80;99.90
31769;DHT22;18342;52.132;21.048;2022-09-09T12:00:42;14.80;99.90
31769;DHT22;18342;52.132;21.048;2022-09-09T12:03:49;14.80;99.90
31769;DHT22;18342;52.132;21.048;2022-09-09T12:08:43;14.90;99.90
31769;DHT22;18342;52.132;21.048;2022-09-09T12:11:10;14.90;99.90
31769;DHT22;18342;52.132;21.048;2022-09-09T12:13:36;14.80;99.90
31769;DHT22;18342;52.132;21.048;2022-09-09T12:16:02;14.80;99.90
31769;DHT22;18342;52.132;21.048;2022-09-09T12:18:35;14.90;99.90
31769;DHT22;18342;52.132;21.048;2022-09-09T12:21:30;14.90;99.90
31769;DHT22;18342;52.132;21.048;2022-09-09T12:24:08;14.90;99.90
31769;DHT22;18342;52.132;21.048;2022-09-09T12:26:57;14.90;99.90
31769;DHT22;18342;52.132;21.048;2022-09-09T12:29:27;14.90;99.90
31769;DHT22;18342;52.132;21.048;2022-09-09T12:34:41;14.80;99.90
31769;DHT22;18342;52.132;21.048;2022-09-09T12:39:57;14.80;99.90
31769;DHT22;18342;52.132;21.048;2022-09-09T12:42:26;14.90;99.90
31769;DHT22;18342;52.132;21.048;2022-09-09T12:44:59;14.90;99.90
31769;DHT22;18342;52.132;21.048;2022-09-09T12:47:39;14.90;99.90
31769;DHT22;18342;52.132;21.048;2022-09-09T12:50:19;15.00;99.90
31769;DHT22;18342;52.132;21.048;2022-09-09T12:52:47;15.00;99.90
31769;DHT22;18342;52.132;21.048;2022-09-09T12:55:23;15.00;99.90
31769;DHT22;18342;52.132;21.048;2022-09-09T12:57:51;15.00;99.90
31769;DHT22;18342;52.132;21.048;2022-09-09T13:00:20;15.00;99.90
31769;DHT22;18342;52.132;21.048;2022-09-09T13:02:53;15.00;99.90
31769;DHT22;18342;52.132;21.048;2022-09-09T13:05:26;15.00;99.90
31769;DHT22;18342;52.132;21.048;2022-09-09T13:07:59;15.00;99.90
31769;DHT22;18342;52.132;21.048;2022-09-09T13:10:29;14.90;99.90
31769;DHT22;18342;52.132;21.048;2022-09-09T13:12:56;14.90;99.90
31769;DHT22;18342;52.132;21.048;2022-09-09T13:15:26;14.90;99.90
31769;DHT22;18342;52.132;21.048;2022-09-09T13:18:05;14.90;99.90
31769;DHT22;18342;52.132;21.048;2022-09-09T13:20:33;14.90;99.90
31769;DHT22;18342;52.132;21.048;2022-09-09T13:22:59;15.00;99.90
31769;DHT22;18342;52.132;21.048;2022-09-09T13:25:27;15.00;99.90
31769;DHT22;18342;52.132;21.048;2022-09-09T13:27:58;15.00;99.90
31769;DHT22;18342;52.132;21.048;2022-09-09T13:30:28;15.00;99.90
31769;DHT22;18342;52.132;21.048;2022-09-09T13:36:09;15.00;99.90
31769;DHT22;18342;52.132;21.048;2022-09-09T13:38:40;15.00;99.90
31769;DHT22;18342;52.132;21.048;2022-09-09T13:41:10;14.90;99.90
31769;DHT22;18342;52.132;21.048;2022-09-09T13:43:47;14.90;99.90
31769;DHT22;18342;52.132;21.048;2022-09-09T13:46:38;15.00;99.90
31769;DHT22;18342;52.132;21.048;2022-09-09T13:54:12;14.90;99.90
31769;DHT22;18342;52.132;21.048;2022-09-09T13:56:39;14.90;99.90
31769;DHT22;18342;52.132;21.048;2022-09-09T13:59:10;14.90;99.90
31769;DHT22;18342;52.132;21.048;2022-09-09T14:01:36;14.80;99.90
31769;DHT22;18342;52.132;21.048;2022-09-09T14:04:03;14.80;99.90
31769;DHT22;18342;52.132;21.048;2022-09-09T14:06:29;14.80;99.90
31769;DHT22;18342;52.132;21.048;2022-09-09T14:08:55;14.80;99.90
31769;DHT22;18342;52.132;21.048;2022-09-09T14:11:21;14.90;99.90
31769;DHT22;18342;52.132;21.048;2022-09-09T14:13:48;14.80;99.90
31769;DHT22;18342;52.132;21.048;2022-09-09T14:16:16;14.70;99.90
31769;DHT22;18342;52.132;21.048;2022-09-09T14:18:43;14.80;99.90
31769;DHT22;18342;52.132;21.048;2022-09-09T14:21:09;14.80;99.90
31769;DHT22;18342;52.132;21.048;2022-09-09T14:23:35;14.80;99.90
31769;DHT22;18342;52.132;21.048;2022-09-09T14:26:01;14.80;99.90
31769;DHT22;18342;52.132;21.048;2022-09-09T14:28:27;14.80;99.90
31769;DHT22;18342;52.132;21.048;2022-09-09T14:30:53;14.80;99.90
31769;DHT22;18342;52.132;21.048;2022-09-09T14:33:19;14.80;99.90
31769;DHT22;18342;52.132;21.048;2022-09-09T14:35:45;14.80;99.90
31769;DHT22;18342;52.132;21.048;2022-09-09T14:38:11;14.80;99.90
31769;DHT22;18342;52.132;21.048;2022-09-09T14:40:37;14.90;99.90
31769;DHT22;18342;52.132;21.048;2022-09-09T14:43:04;14.80;99.90
31769;DHT22;18342;52.132;21.048;2022-09-09T14:45:31;14.80;99.90
31769;DHT22;18342;52.132;21.048;2022-09-09T14:47:57;14.90;99.90
31769;DHT22;18342;52.132;21.048;2022-09-09T14:50:23;14.90;99.90
31769;DHT22;18342;52.132;21.048;2022-09-09T14:52:49;14.90;99.90
31769;DHT22;18342;52.132;21.048;2022-09-09T14:55:16;14.90;99.90
31769;DHT22;18342;52.132;21.048;2022-09-09T14:57:42;14.90;99.90
31769;DHT22;18342;52.132;21.048;2022-09-09T15:00:09;15.00;99.90
31769;DHT22;18342;52.132;21.048;2022-09-09T15:02:35;15.00;99.90
31769;DHT22;18342;52.132;21.048;2022-09-09T15:05:01;15.00;99.90
31769;DHT22;18342;52.132;21.048;2022-09-09T15:07:27;15.00;99.90
31769;DHT22;18342;52.132;21.048;2022-09-09T15:09:54;15.00;99.90
31769;DHT22;18342;52.132;21.048;2022-09-09T15:12:20;15.00;99.90
31769;DHT22;18342;52.132;21.048;2022-09-09T15:14:46;15.00;99.90
31769;DHT22;18342;52.132;21.048;2022-09-09T15:17:12;15.00;99.90
31769;DHT22;18342;52.132;21.048;2022-09-09T15:19:38;15.00;99.90
31769;DHT22;18342;52.132;21.048;2022-09-09T15:22:05;15.00;99.90
31769;DHT22;18342;52.132;21.048;2022-09-09T15:24:32;15.00;99.90
31769;DHT22;18342;52.132;21.048;2022-09-09T15:26:58;15.00;99.90
31769;DHT22;18342;52.132;21.048;2022-09-09T15:29:24;15.00;99.90
31769;DHT22;18342;52.132;21.048;2022-09-09T15:31:49;15.00;99.90
31769;DHT22;18342;52.132;21.048;2022-09-09T15:34:15;15.00;99.90
31769;DHT22;18342;52.132;21.048;2022-09-09T15:36:43;15.00;99.90
31769;DHT22;18342;52.132;21.048;2022-09-09T15:39:11;15.00;99.90
31769;DHT22;18342;52.132;21.048;2022-09-09T15:41:38;15.00;99.90
31769;DHT22;18342;52.132;21.048;2022-09-09T15:44:05;15.10;99.90
31769;DHT22;18342;52.132;21.048;2022-09-09T15:46:35;15.10;99.90
31769;DHT22;18342;52.132;21.048;2022-09-09T15:49:09;15.10;99.90
31769;DHT22;18342;52.132;21.048;2022-09-09T15:51:37;15.20;99.90
31769;DHT22;18342;52.132;21.048;2022-09-09T15:54:03;15.10;99.90
31769;DHT22;18342;52.132;21.048;2022-09-09T15:56:30;15.10;99.90
31769;DHT22;18342;52.132;21.048;2022-09-09T15:58:57;15.10;99.90
31769;DHT22;18342;52.132;21.048;2022-09-09T16:01:23;15.10;99.90
31769;DHT22;18342;52.132;21.048;2022-09-09T16:03:49;15.10;99.90
31769;DHT22;18342;52.132;21.048;2022-09-09T16:06:19;15.10;99.90
31769;DHT22;18342;52.132;21.048;2022-09-09T16:08:48;15.10;99.90
31769;DHT22;18342;52.132;21.048;2022-09-09T16:11:21;15.10;99.90
31769;DHT22;18342;52.132;21.048;2022-09-09T16:13:48;15.10;99.90
31769;DHT22;18342;52.132;21.048;2022-09-09T16:16:16;15.00;99.90
31769;DHT22;18342;52.132;21.048;2022-09-09T16:18:44;15.00;99.90
31769;DHT22;18342;52.132;21.048;2022-09-09T16:21:35;15.00;99.90
31769;DHT22;18342;52.132;21.048;2022-09-09T16:24:03;15.00;99.90
31769;DHT22;18342;52.132;21.048;2022-09-09T16:26:32;15.00;99.90
31769;DHT22;18342;52.132;21.048;2022-09-09T16:28:59;15.00;99.90
31769;DHT22;18342;52.132;21.048;2022-09-09T16:31:27;15.00;99.90
31769;DHT22;18342;52.132;21.048;2022-09-09T16:33:53;15.00;99.90
31769;DHT22;18342;52.132;21.048;2022-09-09T16:36:24;15.00;99.90
31769;DHT22;18342;52.132;21.048;2022-09-09T16:39:01;15.00;99.90
31769;DHT22;18342;52.132;21.048;2022-09-09T16:41:28;15.00;99.90
31769;DHT22;18342;52.132;21.048;2022-09-09T16:43:55;15.00;99.90
31769;DHT22;18342;52.132;21.048;2022-09-09T16:46:22;15.00;99.90
31769;DHT22;18342;52.132;21.048;2022-09-09T16:48:49;15.10;99.90
31769;DHT22;18342;52.132;21.048;2022-09-09T16:51:27;15.10;99.90
31769;DHT22;18342;52.132;21.048;2022-09-09T16:53:54;15.10;99.90
31769;DHT22;18342;52.132;21.048;2022-09-09T16:56:22;15.10;99.90
31769;DHT22;18342;52.132;21.048;2022-09-09T16:58:52;15.00;99.90
31769;DHT22;18342;52.132;21.048;2022-09-09T17:01:18;15.10;99.90
31769;DHT22;18342;52.132;21.048;2022-09-09T17:03:44;15.10;99.90
31769;DHT22;18342;52.132;21.048;2022-09-09T17:06:14;15.10;99.90
31769;DHT22;18342;52.132;21.048;2022-09-09T17:08:41;15.10;99.90
31769;DHT22;18342;52.132;21.048;2022-09-09T17:11:18;15.00;99.90
31769;DHT22;18342;52.132;21.048;2022-09-09T17:13:45;15.00;99.90
31769;DHT22;18342;52.132;21.048;2022-09-09T17:16:12;15.00;99.90
31769;DHT22;18342;52.132;21.048;2022-09-09T17:18:39;15.00;99.90
31769;DHT22;18342;52.132;21.048;2022-09-09T17:21:11;15.00;99.90
31769;DHT22;18342;52.132;21.048;2022-09-09T17:23:38;14.90;99.90
31769;DHT22;18342;52.132;21.048;2022-09-09T17:26:06;14.90;99.90
31769;DHT22;18342;52.132;21.048;2022-09-09T17:28:40;14.90;99.90
31769;DHT22;18342;52.132;21.048;2022-09-09T17:31:08;14.90;99.90
31769;DHT22;18342;52.132;21.048;2022-09-09T17:33:36;14.90;99.90
31769;DHT22;18342;52.132;21.048;2022-09-09T17:36:14;14.80;99.90
31769;DHT22;18342;52.132;21.048;2022-09-09T17:38:41;14.70;99.90